Time;durP1;ratioP1;P1;durP2;ratioP2;P2;SDS_P1;SDS_P2;PMS_P1;PMS_P2;Temp;Humidity;BMP_temperature;BMP_pressure;BME280_temperature;BME280_humidity;BME280_pressure;Samples;Min_cycle;Max_cycle;Signal;HPM_P1;HPM_P2
2023/05/06 00:01:44;;;;;;;16.95;9.45;;;;;;;;;;6225838;28;20064;-66
2023/05/06 00:04:44;;;;;;;19.67;9.45;;;;;;;;;;6226197;28;20041;-67
2023/05/06 00:07:45;;;;;;;16.35;9.13;;;;;;;;;;6224059;28;20145;-65
2023/05/06 00:10:46;;;;;;;18.85;9.45;;;;;;;;;;6224228;28;20487;-65
2023/05/06 00:13:46;;;;;;;15.85;8.80;;;;;;;;;;6225204;28;20075;-69
2023/05/06 00:16:47;;;;;;;18.23;9.40;;;;;;;;;;6223377;28;20400;-65
2023/05/06 00:19:48;;;;;;;17.38;9.35;;;;;;;;;;6223506;28;20049;-66
2023/05/06 00:22:48;;;;;;;16.42;9.15;;;;;;;;;;6225687;28;20046;-65
2023/05/06 00:25:49;;;;;;;17.77;9.35;;;;;;;;;;6224506;28;20065;-66
2023/05/06 00:28:50;;;;;;;16.48;9.10;;;;;;;;;;6222545;28;20053;-64
2023/05/06 00:31:50;;;;;;;17.83;8.90;;;;;;;;;;6225291;28;20045;-64
2023/05/06 00:34:51;;;;;;;19.33;10.10;;;;;;;;;;6226356;28;20091;-65
2023/05/06 00:38:05;;;;;;;20.90;9.75;;;;;;;;;;6222387;28;20139;-65
2023/05/06 00:41:05;;;;;;;20.33;9.25;;;;;;;;;;6225962;28;20049;-66
2023/05/06 00:44:06;;;;;;;18.10;9.93;;;;;;;;;;6223296;28;20083;-66
2023/05/06 00:47:07;;;;;;;19.65;10.23;;;;;;;;;;6220309;28;20571;-67
2023/05/06 00:50:08;;;;;;;16.17;9.23;;;;;;;;;;6226170;28;20147;-70
2023/05/06 00:53:09;;;;;;;16.40;8.85;;;;;;;;;;6225631;28;20539;-71
2023/05/06 00:56:10;;;;;;;20.10;9.43;;;;;;;;;;6225359;28;20046;-65
2023/05/06 00:59:10;;;;;;;16.63;9.10;;;;;;;;;;6222268;28;20046;-66
2023/05/06 01:02:11;;;;;;;17.98;9.93;;;;;;;;;;6227995;28;20076;-65
2023/05/06 01:05:12;;;;;;;15.18;8.75;;;;;;;;;;6223823;28;20053;-66
2023/05/06 01:08:24;;;;;;;15.63;8.73;;;;;;;;;;6223779;28;20049;-65
2023/05/06 01:11:45;;;;;;;21.85;8.63;;;;;;;;;;6223922;28;20689;-65
2023/05/06 01:14:54;;;;;;;14.55;9.13;;;;;;;;;;6227146;28;20057;-65
2023/05/06 01:17:57;;;;;;;15.00;8.15;;;;;;;;;;6223933;28;20050;-65
2023/05/06 01:20:59;;;;;;;16.85;9.35;;;;;;;;;;6222617;28;20037;-64
2023/05/06 01:23:59;;;;;;;17.52;9.15;;;;;;;;;;6223548;28;20044;-67
2023/05/06 01:27:00;;;;;;;16.95;9.48;;;;;;;;;;6220772;28;20071;-64
2023/05/06 01:30:01;;;;;;;16.33;9.68;;;;;;;;;;6221590;28;20415;-65
2023/05/06 01:33:35;;;;;;;17.75;9.80;;;;;;;;;;6221059;28;20396;-64
2023/05/06 01:37:18;;;;;;;15.40;9.40;;;;;;;;;;6210407;28;20053;-65
2023/05/06 01:40:20;;;;;;;15.00;8.38;;;;;;;;;;6223584;28;20053;-73
2023/05/06 01:43:23;;;;;;;16.23;8.18;;;;;;;;;;6220434;28;20049;-70
2023/05/06 01:46:24;;;;;;;15.50;7.95;;;;;;;;;;6222392;28;20049;-69
2023/05/06 01:49:26;;;;;;;17.38;8.88;;;;;;;;;;6220824;28;20061;-72
2023/05/06 01:52:26;;;;;;;16.35;8.02;;;;;;;;;;6223019;28;20062;-64
2023/05/06 01:55:28;;;;;;;14.55;8.10;;;;;;;;;;6225685;28;20455;-63
2023/05/06 01:58:28;;;;;;;14.70;8.82;;;;;;;;;;6211637;28;20053;-64
2023/05/06 02:01:29;;;;;;;15.45;8.00;;;;;;;;;;6224062;28;20481;-63
2023/05/06 02:04:30;;;;;;;16.52;8.60;;;;;;;;;;6222826;28;20041;-65
2023/05/06 02:07:30;;;;;;;16.38;7.93;;;;;;;;;;6223583;28;20057;-64
2023/05/06 02:10:31;;;;;;;15.45;8.80;;;;;;;;;;6222261;28;20041;-65
2023/05/06 02:13:32;;;;;;;14.23;8.95;;;;;;;;;;6222613;28;20068;-65
2023/05/06 02:16:33;;;;;;;15.80;8.70;;;;;;;;;;6222694;28;20040;-64
2023/05/06 02:19:34;;;;;;;13.00;8.15;;;;;;;;;;6222740;28;20426;-65
2023/05/06 02:22:35;;;;;;;13.93;8.32;;;;;;;;;;6221222;28;20111;-70
2023/05/06 02:25:35;;;;;;;14.38;8.60;;;;;;;;;;6219398;28;20048;-69
2023/05/06 02:28:36;;;;;;;13.82;7.90;;;;;;;;;;6220357;28;20046;-64
2023/05/06 02:31:36;;;;;;;13.35;8.05;;;;;;;;;;6223425;28;20049;-64
2023/05/06 02:34:37;;;;;;;16.15;8.07;;;;;;;;;;6218841;28;20056;-64
2023/05/06 02:37:38;;;;;;;12.57;7.85;;;;;;;;;;6224269;28;20046;-65
2023/05/06 02:40:38;;;;;;;14.02;8.50;;;;;;;;;;6222859;28;20159;-65
2023/05/06 02:43:39;;;;;;;21.42;9.55;;;;;;;;;;6218471;28;20041;-64
2023/05/06 02:46:39;;;;;;;13.68;7.50;;;;;;;;;;6221972;28;20050;-65
2023/05/06 02:49:40;;;;;;;16.52;8.45;;;;;;;;;;6227834;28;20050;-64
2023/05/06 02:52:41;;;;;;;14.07;8.15;;;;;;;;;;6226790;28;20075;-65
2023/05/06 02:55:42;;;;;;;15.68;8.85;;;;;;;;;;6224158;28;20780;-64
2023/05/06 02:58:42;;;;;;;16.85;8.10;;;;;;;;;;6226970;28;20053;-64
2023/05/06 03:01:43;;;;;;;18.20;9.40;;;;;;;;;;6229360;28;20064;-73
2023/05/06 03:04:43;;;;;;;15.43;8.93;;;;;;;;;;6207681;28;20428;-71
2023/05/06 03:07:44;;;;;;;15.15;8.65;;;;;;;;;;6224689;28;20065;-68
2023/05/06 03:10:45;;;;;;;14.38;8.55;;;;;;;;;;6234056;28;20491;-64
2023/05/06 03:13:45;;;;;;;17.88;9.35;;;;;;;;;;6231275;28;20413;-64
2023/05/06 03:16:47;;;;;;;14.75;8.90;;;;;;;;;;6227274;28;20046;-64
2023/05/06 03:19:49;;;;;;;13.68;7.65;;;;;;;;;;6227709;28;20041;-64
2023/05/06 03:22:50;;;;;;;15.48;8.43;;;;;;;;;;6223470;28;20049;-65
2023/05/06 03:25:50;;;;;;;13.77;8.25;;;;;;;;;;6225424;28;20424;-74
2023/05/06 03:28:51;;;;;;;13.73;8.18;;;;;;;;;;6225563;28;20120;-64
2023/05/06 03:31:55;;;;;;;14.88;8.00;;;;;;;;;;6223087;28;20057;-65
2023/05/06 03:34:55;;;;;;;12.98;7.88;;;;;;;;;;6222335;28;20448;-64
2023/05/06 03:37:56;;;;;;;13.18;8.10;;;;;;;;;;6228046;28;20056;-64
2023/05/06 03:40:56;;;;;;;16.00;8.65;;;;;;;;;;6225227;28;20046;-67
2023/05/06 03:43:57;;;;;;;14.73;8.35;;;;;;;;;;6223126;28;20055;-64
2023/05/06 03:46:57;;;;;;;15.02;8.60;;;;;;;;;;6226069;28;20116;-64
2023/05/06 03:49:58;;;;;;;16.67;8.18;;;;;;;;;;6234363;28;20068;-64
2023/05/06 03:52:59;;;;;;;15.60;10.20;;;;;;;;;;6222694;28;20048;-74
2023/05/06 03:56:00;;;;;;;15.10;10.50;;;;;;;;;;6226093;28;20053;-67
2023/05/06 03:59:01;;;;;;;16.17;8.50;;;;;;;;;;6235576;28;20046;-64
2023/05/06 04:02:01;;;;;;;13.98;7.40;;;;;;;;;;6224640;28;20053;-64
2023/05/06 04:05:02;;;;;;;14.68;7.53;;;;;;;;;;6223998;28;20102;-71
2023/05/06 04:08:03;;;;;;;13.98;8.13;;;;;;;;;;6225765;28;20528;-64
2023/05/06 04:11:05;;;;;;;12.50;7.28;;;;;;;;;;6224496;28;20762;-64
2023/05/06 04:14:05;;;;;;;11.25;7.15;;;;;;;;;;6223390;28;20468;-65
2023/05/06 04:17:06;;;;;;;10.75;6.38;;;;;;;;;;6226952;28;20495;-69
2023/05/06 04:20:10;;;;;;;13.75;7.32;;;;;;;;;;6229980;28;20045;-64
2023/05/06 04:23:10;;;;;;;11.48;6.65;;;;;;;;;;6220845;28;20500;-73
2023/05/06 04:26:11;;;;;;;13.02;7.50;;;;;;;;;;6225643;28;20060;-64
2023/05/06 04:29:11;;;;;;;12.27;6.70;;;;;;;;;;6225267;28;20045;-64
2023/05/06 04:32:12;;;;;;;18.70;9.65;;;;;;;;;;6224316;28;20049;-75
2023/05/06 04:35:13;;;;;;;15.60;8.40;;;;;;;;;;6225460;28;20427;-64
2023/05/06 04:38:14;;;;;;;14.75;7.38;;;;;;;;;;6227597;28;20042;-64
2023/05/06 04:41:15;;;;;;;16.55;7.85;;;;;;;;;;6222989;28;20045;-64
2023/05/06 04:44:15;;;;;;;13.57;6.88;;;;;;;;;;6221717;28;20069;-67
2023/05/06 04:47:16;;;;;;;10.60;6.20;;;;;;;;;;6225328;28;20045;-64
2023/05/06 04:50:17;;;;;;;11.38;6.63;;;;;;;;;;6224767;28;20054;-63
2023/05/06 04:53:17;;;;;;;9.80;6.32;;;;;;;;;;6223019;28;20073;-64
2023/05/06 04:56:18;;;;;;;13.20;6.80;;;;;;;;;;6225636;28;20050;-64
2023/05/06 04:59:19;;;;;;;12.05;7.40;;;;;;;;;;6225369;28;20041;-67
2023/05/06 05:02:19;;;;;;;13.10;8.02;;;;;;;;;;6225140;28;20155;-74
2023/05/06 05:05:20;;;;;;;12.10;6.90;;;;;;;;;;6223372;28;20053;-65
2023/05/06 05:08:20;;;;;;;15.63;7.75;;;;;;;;;;6227614;28;20053;-74
2023/05/06 05:11:21;;;;;;;14.73;7.53;;;;;;;;;;6225320;28;20143;-65
2023/05/06 05:14:21;;;;;;;13.73;7.55;;;;;;;;;;6221341;28;20038;-64
2023/05/06 05:17:22;;;;;;;24.40;9.48;;;;;;;;;;6225506;28;20134;-71
2023/05/06 05:20:23;;;;;;;16.67;8.68;;;;;;;;;;6219560;28;20049;-64
2023/05/06 05:23:23;;;;;;;22.42;10.48;;;;;;;;;;6223058;28;20053;-68
2023/05/06 05:26:24;;;;;;;18.73;9.23;;;;;;;;;;6230922;28;20054;-64
2023/05/06 05:29:24;;;;;;;20.90;10.60;;;;;;;;;;6221964;28;20576;-66
2023/05/06 05:32:25;;;;;;;22.00;9.63;;;;;;;;;;6220234;28;20081;-73
2023/05/06 05:35:26;;;;;;;11.13;6.57;;;;;;;;;;6219140;28;20504;-72
2023/05/06 05:38:26;;;;;;;14.98;6.60;;;;;;;;;;6219803;28;20138;-74
2023/05/06 05:41:27;;;;;;;10.25;5.68;;;;;;;;;;6223902;28;20551;-68
2023/05/06 05:44:28;;;;;;;11.93;6.13;;;;;;;;;;6222233;28;20042;-65
2023/05/06 05:47:28;;;;;;;12.48;6.28;;;;;;;;;;6224232;28;20492;-65
2023/05/06 05:50:29;;;;;;;11.43;6.50;;;;;;;;;;6219733;28;20077;-65
2023/05/06 05:53:30;;;;;;;10.40;6.63;;;;;;;;;;6222954;28;20050;-72
2023/05/06 05:56:32;;;;;;;12.20;6.43;;;;;;;;;;6222551;28;20042;-65
2023/05/06 05:59:32;;;;;;;11.90;6.45;;;;;;;;;;6222366;28;20127;-69
2023/05/06 06:02:33;;;;;;;10.73;5.80;;;;;;;;;;6222026;28;20135;-65
2023/05/06 06:05:35;;;;;;;11.43;6.15;;;;;;;;;;6219815;28;20037;-67
2023/05/06 06:08:35;;;;;;;11.90;5.85;;;;;;;;;;6220814;28;20527;-65
2023/05/06 06:11:36;;;;;;;11.88;6.35;;;;;;;;;;6225827;28;20535;-73
2023/05/06 06:14:37;;;;;;;11.30;6.75;;;;;;;;;;6214504;28;20085;-65
2023/05/06 06:17:37;;;;;;;13.63;6.82;;;;;;;;;;6203929;28;20053;-65
2023/05/06 06:20:38;;;;;;;12.52;5.78;;;;;;;;;;6225042;28;20052;-64
2023/05/06 06:23:39;;;;;;;10.63;5.97;;;;;;;;;;6221823;28;20127;-64
2023/05/06 06:26:40;;;;;;;8.52;5.75;;;;;;;;;;6229393;28;20049;-65
2023/05/06 06:29:41;;;;;;;11.10;5.85;;;;;;;;;;6226541;28;20057;-65
2023/05/06 06:32:49;;;;;;;9.82;5.53;;;;;;;;;;6226437;28;20049;-64
2023/05/06 06:35:50;;;;;;;10.98;5.90;;;;;;;;;;6225107;28;20041;-64
2023/05/06 06:38:50;;;;;;;11.52;6.47;;;;;;;;;;6226615;28;20566;-65
2023/05/06 06:41:51;;;;;;;11.18;5.97;;;;;;;;;;6221312;28;20042;-64
2023/05/06 06:44:51;;;;;;;13.80;7.47;;;;;;;;;;6224898;28;20042;-66
2023/05/06 06:47:52;;;;;;;13.43;7.68;;;;;;;;;;6226361;28;20057;-69
2023/05/06 06:50:53;;;;;;;11.05;6.00;;;;;;;;;;6226972;28;20080;-63
2023/05/06 06:53:53;;;;;;;8.30;5.45;;;;;;;;;;6221892;28;20054;-65
2023/05/06 06:56:57;;;;;;;13.30;6.35;;;;;;;;;;6225068;28;20038;-66
2023/05/06 06:59:57;;;;;;;9.57;5.63;;;;;;;;;;6229424;28;20042;-65
2023/05/06 07:02:58;;;;;;;14.50;5.82;;;;;;;;;;6208474;28;21024;-65
2023/05/06 07:05:59;;;;;;;14.52;7.38;;;;;;;;;;6225506;28;20079;-66
2023/05/06 07:08:59;;;;;;;12.05;6.40;;;;;;;;;;6225272;28;20516;-67
2023/05/06 07:12:00;;;;;;;10.18;5.80;;;;;;;;;;6226106;28;20115;-66
2023/05/06 07:15:05;;;;;;;10.60;5.65;;;;;;;;;;6222774;28;20095;-66
2023/05/06 07:18:06;;;;;;;12.38;5.63;;;;;;;;;;6235800;28;20034;-67
2023/05/06 07:21:06;;;;;;;12.70;6.05;;;;;;;;;;6226965;28;20595;-68
2023/05/06 07:24:07;;;;;;;15.20;7.75;;;;;;;;;;6225025;28;20052;-69
2023/05/06 07:27:08;;;;;;;13.07;5.65;;;;;;;;;;6228999;28;20045;-66
2023/05/06 07:30:09;;;;;;;9.27;5.78;;;;;;;;;;6232656;28;20046;-66
2023/05/06 07:33:09;;;;;;;9.40;5.97;;;;;;;;;;6219401;28;20400;-66
2023/05/06 07:36:10;;;;;;;10.07;5.80;;;;;;;;;;6218415;28;20042;-70
2023/05/06 07:39:12;;;;;;;9.45;5.80;;;;;;;;;;6225142;28;20131;-66
2023/05/06 07:42:12;;;;;;;11.18;6.68;;;;;;;;;;6226038;28;20485;-66
2023/05/06 07:45:14;;;;;;;11.95;6.07;;;;;;;;;;6222637;28;20090;-67
2023/05/06 07:48:14;;;;;;;11.13;5.50;;;;;;;;;;6220356;28;20046;-69
2023/05/06 07:51:15;;;;;;;12.52;7.07;;;;;;;;;;6225746;28;20684;-67
2023/05/06 07:54:15;;;;;;;13.88;6.72;;;;;;;;;;6224926;28;20038;-65
2023/05/06 07:57:16;;;;;;;10.43;6.25;;;;;;;;;;6225891;28;20037;-70
2023/05/06 08:00:17;;;;;;;16.15;8.52;;;;;;;;;;6225875;28;20061;-69
2023/05/06 08:03:18;;;;;;;12.23;7.47;;;;;;;;;;6223223;28;20391;-66
2023/05/06 08:06:18;;;;;;;15.13;7.10;;;;;;;;;;6223465;28;20045;-66
2023/05/06 08:09:19;;;;;;;10.75;6.15;;;;;;;;;;6224114;28;20132;-67
2023/05/06 08:12:20;;;;;;;17.70;8.00;;;;;;;;;;6232959;28;20038;-68
2023/05/06 08:15:21;;;;;;;13.45;6.35;;;;;;;;;;6225430;28;20449;-67
2023/05/06 08:18:21;;;;;;;14.10;6.65;;;;;;;;;;6227712;28;20053;-67
2023/05/06 08:21:22;;;;;;;9.88;5.60;;;;;;;;;;6224298;28;20046;-67
2023/05/06 08:24:23;;;;;;;12.52;6.18;;;;;;;;;;6223649;28;20065;-69
2023/05/06 08:27:24;;;;;;;11.25;5.93;;;;;;;;;;6230320;28;20466;-66
2023/05/06 08:30:25;;;;;;;12.65;6.65;;;;;;;;;;6223505;28;20563;-67
2023/05/06 08:33:26;;;;;;;12.32;7.15;;;;;;;;;;6221138;28;20048;-67
2023/05/06 08:36:26;;;;;;;19.15;8.60;;;;;;;;;;6224912;28;20045;-67
2023/05/06 08:39:27;;;;;;;18.75;8.13;;;;;;;;;;6230631;28;20045;-68
2023/05/06 08:42:29;;;;;;;13.50;7.60;;;;;;;;;;6227530;28;20041;-67
2023/05/06 08:45:31;;;;;;;13.43;7.07;;;;;;;;;;6233952;28;20607;-67
2023/05/06 08:48:32;;;;;;;9.77;6.35;;;;;;;;;;6229580;28;20056;-67
2023/05/06 08:51:34;;;;;;;10.18;6.65;;;;;;;;;;6228080;28;20080;-68
2023/05/06 08:54:35;;;;;;;11.32;7.18;;;;;;;;;;6223418;28;20046;-67
2023/05/06 08:57:37;;;;;;;10.73;5.85;;;;;;;;;;6226697;28;20423;-67
2023/05/06 09:00:38;;;;;;;10.52;6.60;;;;;;;;;;6204290;28;20511;-68
2023/05/06 09:03:38;;;;;;;10.90;6.67;;;;;;;;;;6221635;28;20144;-67
2023/05/06 09:06:39;;;;;;;13.98;6.32;;;;;;;;;;6222991;28;20084;-67
2023/05/06 09:09:40;;;;;;;12.32;6.10;;;;;;;;;;6222641;28;20077;-67
2023/05/06 09:12:40;;;;;;;9.63;5.90;;;;;;;;;;6222915;28;20056;-68
2023/05/06 09:15:46;;;;;;;11.43;6.70;;;;;;;;;;6225795;28;20052;-68
2023/05/06 09:18:46;;;;;;;13.00;6.40;;;;;;;;;;6224323;28;20060;-67
2023/05/06 09:21:49;;;;;;;15.68;6.53;;;;;;;;;;6224787;28;20136;-67
2023/05/06 09:24:55;;;;;;;12.70;6.70;;;;;;;;;;6220951;28;20053;-68
2023/05/06 09:28:08;;;;;;;13.18;7.50;;;;;;;;;;6225511;28;20041;-67
2023/05/06 09:31:08;;;;;;;10.07;6.20;;;;;;;;;;6221763;28;20057;-68
2023/05/06 09:34:13;;;;;;;11.55;7.00;;;;;;;;;;6224107;28;20054;-68
2023/05/06 09:37:13;;;;;;;12.75;6.78;;;;;;;;;;6225255;28;20046;-68
2023/05/06 09:40:14;;;;;;;12.95;7.30;;;;;;;;;;6222821;28;20052;-68
2023/05/06 09:43:15;;;;;;;14.20;6.78;;;;;;;;;;6224395;28;20069;-68
2023/05/06 09:46:17;;;;;;;13.17;7.23;;;;;;;;;;6221690;28;20046;-68
2023/05/06 09:49:17;;;;;;;15.43;8.38;;;;;;;;;;6222067;28;20397;-67
2023/05/06 09:52:19;;;;;;;34.97;18.40;;;;;;;;;;6223622;28;20547;-67
2023/05/06 09:55:22;;;;;;;35.08;19.08;;;;;;;;;;6221718;28;20440;-67
2023/05/06 09:58:24;;;;;;;15.55;10.45;;;;;;;;;;6225104;28;20053;-68
2023/05/06 10:01:25;;;;;;;12.40;8.13;;;;;;;;;;6226549;28;20072;-68
2023/05/06 10:04:29;;;;;;;15.10;8.57;;;;;;;;;;6229458;28;20096;-69
2023/05/06 10:07:31;;;;;;;13.82;9.57;;;;;;;;;;6230205;28;20061;-68
2023/05/06 10:10:33;;;;;;;;;;;;;;;;;;6227858;28;20415;-67
2023/05/06 10:13:35;;;;;;;20.77;11.63;;;;;;;;;;6227509;28;20079;-68
2023/05/06 10:16:39;;;;;;;17.80;10.82;;;;;;;;;;6226259;28;20486;-67
2023/05/06 10:19:42;;;;;;;17.25;9.25;;;;;;;;;;6225627;28;20038;-67
2023/05/06 10:22:51;;;;;;;19.15;10.73;;;;;;;;;;6227520;28;20106;-70
2023/05/06 10:26:06;;;;;;;18.00;11.38;;;;;;;;;;6225641;28;20079;-70
2023/05/06 10:29:09;;;;;;;17.00;11.43;;;;;;;;;;6223933;28;20061;-68
2023/05/06 10:32:11;;;;;;;17.25;11.30;;;;;;;;;;6228614;28;20053;-70
2023/05/06 10:35:26;;;;;;;18.67;12.05;;;;;;;;;;6229429;28;20098;-67
2023/05/06 10:38:36;;;;;;;20.63;10.65;;;;;;;;;;6226020;28;20053;-70
2023/05/06 10:41:37;;;;;;;17.42;11.10;;;;;;;;;;6203911;28;20780;-67
2023/05/06 10:44:57;;;;;;;16.60;10.15;;;;;;;;;;6225466;28;20049;-66
2023/05/06 10:47:58;;;;;;;17.65;10.38;;;;;;;;;;6227329;28;20056;-69
2023/05/06 10:51:27;;;;;;;17.55;10.85;;;;;;;;;;6225400;28;20083;-67
2023/05/06 10:54:28;;;;;;;16.38;10.35;;;;;;;;;;6209727;28;20053;-66
2023/05/06 10:57:39;;;;;;;17.88;10.82;;;;;;;;;;6228423;28;20046;-66
2023/05/06 11:00:40;;;;;;;15.63;10.70;;;;;;;;;;6233108;28;20107;-66
2023/05/06 11:03:42;;;;;;;18.88;11.55;;;;;;;;;;6229921;28;20049;-66
2023/05/06 11:06:47;;;;;;;;;;;;;;;;;;6228343;28;20054;-66
2023/05/06 11:09:58;;;;;;;22.70;12.75;;;;;;;;;;6223646;28;20019;-66
2023/05/06 11:13:25;;;;;;;27.00;16.90;;;;;;;;;;6223061;28;20056;-66
2023/05/06 11:16:49;;;;;;;21.60;13.60;;;;;;;;;;6225696;28;20061;-66
2023/05/06 11:20:21;;;;;;;18.52;11.52;;;;;;;;;;6226894;28;20465;-65
2023/05/06 11:24:05;;;;;;;20.90;12.57;;;;;;;;;;6228916;28;20477;-67
2023/05/06 11:27:06;;;;;;;25.17;14.23;;;;;;;;;;6239173;28;20061;-66
2023/05/06 11:30:12;;;;;;;21.03;14.20;;;;;;;;;;6243869;28;20514;-66
2023/05/06 11:33:17;;;;;;;22.92;13.98;;;;;;;;;;6245108;28;20052;-69
2023/05/06 11:36:20;;;;;;;21.80;14.10;;;;;;;;;;6245500;28;20053;-66
2023/05/06 11:39:20;;;;;;;23.55;14.85;;;;;;;;;;6244944;28;20140;-66
2023/05/06 11:42:26;;;;;;;22.70;13.80;;;;;;;;;;6243813;28;20513;-65
2023/05/06 11:45:39;;;;;;;21.50;13.35;;;;;;;;;;6232050;28;20352;-65
2023/05/06 11:48:41;;;;;;;21.10;13.30;;;;;;;;;;6244486;28;20504;-64
2023/05/06 11:51:42;;;;;;;20.60;13.95;;;;;;;;;;6242692;28;20052;-66
2023/05/06 11:54:43;;;;;;;24.25;14.30;;;;;;;;;;6245191;28;20385;-65
2023/05/06 11:57:45;;;;;;;23.40;14.10;;;;;;;;;;6244586;28;20072;-65
2023/05/06 12:00:46;;;;;;;21.88;14.45;;;;;;;;;;6243532;28;20052;-65
2023/05/06 12:03:47;;;;;;;23.70;14.75;;;;;;;;;;6243577;28;20046;-66
2023/05/06 12:06:47;;;;;;;26.55;16.05;;;;;;;;;;6243641;28;20519;-65
2023/05/06 12:09:48;;;;;;;24.65;15.05;;;;;;;;;;6244426;28;20042;-65
2023/05/06 12:12:49;;;;;;;25.98;16.60;;;;;;;;;;6242695;28;20453;-63
2023/05/06 12:15:52;;;;;;;29.30;17.25;;;;;;;;;;6223872;28;20037;-63
2023/05/06 12:18:53;;;;;;;24.70;15.82;;;;;;;;;;6230646;28;20075;-64
2023/05/06 12:21:54;;;;;;;28.55;17.52;;;;;;;;;;6241535;28;20059;-63
2023/05/06 12:24:55;;;;;;;30.73;18.27;;;;;;;;;;6243683;28;20053;-63
2023/05/06 12:27:57;;;;;;;26.13;15.90;;;;;;;;;;6243053;28;20042;-64
2023/05/06 12:30:57;;;;;;;26.00;15.38;;;;;;;;;;6242550;28;20222;-65
2023/05/06 12:33:58;;;;;;;31.88;22.33;;;;;;;;;;6242605;28;20053;-61
2023/05/06 12:36:58;;;;;;;31.13;19.95;;;;;;;;;;6243253;28;20048;-65
2023/05/06 12:40:00;;;;;;;28.80;17.25;;;;;;;;;;6243786;28;20049;-68
2023/05/06 12:43:00;;;;;;;26.15;16.73;;;;;;;;;;6241605;28;20041;-64
2023/05/06 12:46:06;;;;;;;25.15;15.60;;;;;;;;;;6242906;28;20403;-64
2023/05/06 12:49:06;;;;;;;25.75;15.20;;;;;;;;;;6242716;28;20045;-65
2023/05/06 12:52:08;;;;;;;24.77;14.95;;;;;;;;;;6241574;28;20064;-73
2023/05/06 12:55:09;;;;;;;24.10;15.07;;;;;;;;;;6242952;28;20064;-63
2023/05/06 12:58:17;;;;;;;22.63;14.93;;;;;;;;;;6242903;28;20439;-64
2023/05/06 13:01:20;;;;;;;24.17;15.30;;;;;;;;;;6242045;28;20053;-63
2023/05/06 13:04:21;;;;;;;23.58;14.35;;;;;;;;;;6241191;28;20046;-69
2023/05/06 13:07:22;;;;;;;23.40;15.43;;;;;;;;;;6242602;28;20493;-69
2023/05/06 13:10:23;;;;;;;25.17;16.15;;;;;;;;;;6243085;28;20119;-67
2023/05/06 13:13:23;;;;;;;23.02;15.45;;;;;;;;;;6240487;28;20642;-68
2023/05/06 13:16:24;;;;;;;22.60;15.77;;;;;;;;;;6242406;28;20049;-64
2023/05/06 13:19:25;;;;;;;24.58;15.88;;;;;;;;;;6241751;28;20041;-61
2023/05/06 13:22:26;;;;;;;24.17;16.67;;;;;;;;;;6240278;28;20446;-68
2023/05/06 13:25:26;;;;;;;23.65;16.17;;;;;;;;;;6242822;28;20054;-68
2023/05/06 13:28:27;;;;;;;25.63;15.93;;;;;;;;;;6241819;28;20087;-68
2023/05/06 13:31:28;;;;;;;24.45;15.65;;;;;;;;;;6241186;28;20117;-64
2023/05/06 13:34:28;;;;;;;26.15;15.80;;;;;;;;;;6241183;28;20053;-64
2023/05/06 13:37:29;;;;;;;26.52;16.65;;;;;;;;;;6241978;28;20476;-64
2023/05/06 13:40:29;;;;;;;26.08;16.58;;;;;;;;;;6242420;28;20132;-70
2023/05/06 13:43:30;;;;;;;28.80;18.05;;;;;;;;;;6240434;28;20052;-65
2023/05/06 13:46:31;;;;;;;30.05;19.67;;;;;;;;;;6240392;28;20080;-68
2023/05/06 13:49:31;;;;;;;30.33;18.08;;;;;;;;;;6242003;28;20056;-70
2023/05/06 13:52:32;;;;;;;29.75;18.85;;;;;;;;;;6239968;28;20472;-64
2023/05/06 13:55:32;;;;;;;31.33;19.25;;;;;;;;;;6242113;28;20049;-64
2023/05/06 13:58:33;;;;;;;35.88;21.52;;;;;;;;;;6242200;28;20054;-66
2023/05/06 14:01:33;;;;;;;38.42;21.80;;;;;;;;;;6240696;28;20404;-63
2023/05/06 14:04:34;;;;;;;36.17;22.80;;;;;;;;;;6240972;28;20049;-68
2023/05/06 14:07:35;;;;;;;41.05;24.52;;;;;;;;;;6241530;28;20060;-64
2023/05/06 14:10:35;;;;;;;40.70;24.13;;;;;;;;;;6241025;28;20061;-65
2023/05/06 14:13:36;;;;;;;38.47;23.90;;;;;;;;;;6240821;28;20052;-64
2023/05/06 14:16:37;;;;;;;37.83;23.50;;;;;;;;;;6241012;28;20508;-61
2023/05/06 14:19:37;;;;;;;45.00;25.20;;;;;;;;;;6241873;28;20049;-65
2023/05/06 14:22:39;;;;;;;41.78;24.83;;;;;;;;;;6231120;28;20041;-69
2023/05/06 14:25:40;;;;;;;37.90;24.35;;;;;;;;;;6241817;28;20049;-67
2023/05/06 14:28:41;;;;;;;39.90;25.08;;;;;;;;;;6234175;28;20559;-69
2023/05/06 14:31:41;;;;;;;39.88;23.85;;;;;;;;;;6233608;28;20046;-67
2023/05/06 14:34:42;;;;;;;43.85;25.33;;;;;;;;;;6229723;28;20049;-70
2023/05/06 14:37:42;;;;;;;39.58;23.60;;;;;;;;;;6232806;28;20045;-68
2023/05/06 14:40:43;;;;;;;41.67;24.75;;;;;;;;;;6228243;28;20075;-71
2023/05/06 14:43:43;;;;;;;39.42;22.48;;;;;;;;;;6240381;28;20495;-66
2023/05/06 14:46:44;;;;;;;32.30;20.30;;;;;;;;;;6234574;28;20408;-69
2023/05/06 14:49:44;;;;;;;36.38;21.88;;;;;;;;;;6239046;28;20052;-66
2023/05/06 14:52:45;;;;;;;31.60;19.90;;;;;;;;;;6243776;28;20147;-66
2023/05/06 14:55:47;;;;;;;34.92;21.55;;;;;;;;;;6244978;28;20056;-67
2023/05/06 14:58:48;;;;;;;34.38;20.70;;;;;;;;;;6245376;28;20502;-67
2023/05/06 15:01:48;;;;;;;33.60;19.35;;;;;;;;;;6242749;28;20052;-66
2023/05/06 15:04:49;;;;;;;34.25;20.45;;;;;;;;;;6240300;28;20052;-66
2023/05/06 15:07:50;;;;;;;29.65;19.20;;;;;;;;;;6244886;28;20053;-67
2023/05/06 15:10:50;;;;;;;29.20;18.50;;;;;;;;;;6244854;28;20469;-66
2023/05/06 15:13:51;;;;;;;30.98;18.77;;;;;;;;;;6243961;28;20408;-66
2023/05/06 15:16:55;;;;;;;33.05;19.85;;;;;;;;;;6245146;28;20037;-60
2023/05/06 15:19:55;;;;;;;30.75;19.40;;;;;;;;;;6243966;28;20041;-63
2023/05/06 15:22:56;;;;;;;28.27;18.52;;;;;;;;;;6243198;28;20099;-68
2023/05/06 15:25:57;;;;;;;30.27;19.17;;;;;;;;;;6244946;28;20046;-68
2023/05/06 15:28:57;;;;;;;31.60;18.83;;;;;;;;;;6244433;28;20547;-64
2023/05/06 15:31:58;;;;;;;30.55;20.05;;;;;;;;;;6243331;28;20053;-68
2023/05/06 15:34:59;;;;;;;29.23;19.42;;;;;;;;;;6242806;28;20057;-69
2023/05/06 15:38:02;;;;;;;31.23;18.63;;;;;;;;;;6235116;28;20041;-67
2023/05/06 15:41:03;;;;;;;29.90;19.60;;;;;;;;;;6234715;28;20049;-68
2023/05/06 15:44:03;;;;;;;29.17;19.33;;;;;;;;;;6229163;28;20356;-73
2023/05/06 15:47:05;;;;;;;30.33;18.30;;;;;;;;;;6204010;28;20042;-67
2023/05/06 15:50:06;;;;;;;33.35;19.15;;;;;;;;;;6242479;28;20107;-68
2023/05/06 15:53:06;;;;;;;28.87;19.40;;;;;;;;;;6242485;28;20045;-66
2023/05/06 15:56:08;;;;;;;30.48;20.20;;;;;;;;;;6242932;28;20059;-70
2023/05/06 15:59:08;;;;;;;30.42;20.13;;;;;;;;;;6241313;28;20046;-68
2023/05/06 16:02:09;;;;;;;32.63;21.40;;;;;;;;;;6227692;28;20479;-66
2023/05/06 16:05:10;;;;;;;33.00;20.55;;;;;;;;;;6242984;28;20060;-69
2023/05/06 16:08:11;;;;;;;33.47;19.73;;;;;;;;;;6240731;28;21108;-65
2023/05/06 16:11:11;;;;;;;31.70;21.25;;;;;;;;;;6239886;28;20083;-69
2023/05/06 16:14:12;;;;;;;31.90;20.73;;;;;;;;;;6239916;28;20045;-63
2023/05/06 16:17:14;;;;;;;31.23;19.58;;;;;;;;;;6240787;28;20050;-62
2023/05/06 16:20:14;;;;;;;32.78;19.88;;;;;;;;;;6228345;28;20054;-64
2023/05/06 16:23:15;;;;;;;31.02;20.13;;;;;;;;;;6213134;28;20515;-66
2023/05/06 16:26:16;;;;;;;35.03;20.88;;;;;;;;;;6235291;28;20629;-63
2023/05/06 16:29:19;;;;;;;39.25;21.48;;;;;;;;;;6226337;28;20459;-67
2023/05/06 16:32:19;;;;;;;37.47;22.83;;;;;;;;;;6230657;28;20134;-64
2023/05/06 16:35:27;;;;;;;33.30;21.90;;;;;;;;;;6232868;28;20054;-68
2023/05/06 16:38:28;;;;;;;32.72;21.05;;;;;;;;;;6231110;28;20564;-71
2023/05/06 16:41:29;;;;;;;32.33;21.05;;;;;;;;;;6232626;28;20045;-67
2023/05/06 16:44:30;;;;;;;34.95;20.35;;;;;;;;;;6232237;28;20045;-75
2023/05/06 16:47:30;;;;;;;31.35;19.50;;;;;;;;;;6231954;28;20049;-66
2023/05/06 16:50:31;;;;;;;33.30;21.00;;;;;;;;;;6230722;28;20393;-66
2023/05/06 16:53:31;;;;;;;33.63;20.67;;;;;;;;;;6231151;28;20514;-77
2023/05/06 16:56:32;;;;;;;33.70;21.10;;;;;;;;;;6233902;28;20053;-73
2023/05/06 16:59:33;;;;;;;32.25;20.17;;;;;;;;;;6231584;28;20068;-66
2023/05/06 17:02:33;;;;;;;32.83;21.35;;;;;;;;;;6231473;28;20498;-69
2023/05/06 17:05:35;;;;;;;32.78;20.17;;;;;;;;;;6233813;28;20068;-70
2023/05/06 17:08:36;;;;;;;33.78;20.08;;;;;;;;;;6230192;28;20080;-65
2023/05/06 17:11:37;;;;;;;32.90;19.58;;;;;;;;;;6232829;28;20110;-62
2023/05/06 17:14:39;;;;;;;30.95;19.48;;;;;;;;;;6231676;28;20053;-64
2023/05/06 17:17:40;;;;;;;31.80;18.85;;;;;;;;;;6231035;28;20059;-61
2023/05/06 17:20:41;;;;;;;33.25;19.88;;;;;;;;;;6233369;28;20423;-62
2023/05/06 17:23:42;;;;;;;31.30;18.98;;;;;;;;;;6229498;28;20085;-63
2023/05/06 17:26:42;;;;;;;31.05;18.48;;;;;;;;;;6230705;28;20141;-61
2023/05/06 17:29:43;;;;;;;30.67;18.85;;;;;;;;;;6226358;28;20450;-62
2023/05/06 17:32:44;;;;;;;30.27;18.13;;;;;;;;;;6228492;28;20496;-62
2023/05/06 17:35:44;;;;;;;30.88;18.27;;;;;;;;;;6228496;28;20080;-64
2023/05/06 17:38:50;;;;;;;28.95;17.75;;;;;;;;;;6226924;28;20476;-59
2023/05/06 17:41:51;;;;;;;34.05;18.52;;;;;;;;;;6228378;28;20037;-61
2023/05/06 17:44:53;;;;;;;30.35;18.05;;;;;;;;;;6228519;28;20034;-65
2023/05/06 17:47:55;;;;;;;33.15;20.00;;;;;;;;;;6209445;28;20459;-64
2023/05/06 17:50:59;;;;;;;29.42;17.85;;;;;;;;;;6229865;28;20508;-65